Wakefield, Michigan
Current Conditions -  °F | °C
As of 2:15 PM on Friday 24 Oct 2014 (Local Time) from KIWD Reporting Station
Clear Clear  
Wind Chill: 64°   Ceiling: Unl
Heat Index: 64°   Visibility: 10mi
Dew Point: 45°   Wind: 16mph
Humidity: 49%   Direction: 200°SSW
Pressure: 29.78"   Gusts: 20mph
Location:  46.48°N, 89.94°W
Report Text: KIWD 241915Z AUTO 20014G17KT 10SM CLR 18/07 A2978 RMK AO1
Loading
Personal Weather Stations






























Interactive Weather Map
Tropical Storm Tracking
New forecast layout! Learn more

10-Day Weather Forecast

Advertisements
Track Severe Weather on mobile